Time;durP1;ratioP1;P1;durP2;ratioP2;P2;SDS_P1;SDS_P2;PMS_P1;PMS_P2;Temp;Humidity;BMP_temperature;BMP_pressure;BME280_temperature;BME280_humidity;BME280_pressure;Samples;Min_cycle;Max_cycle;Signal;HPM_P1;HPM_P2
2022/01/19 00:04:18;;;;;;;44.58;16.20;;;;;;;;;;10199088;29;20091;-68
2022/01/19 00:09:20;;;;;;;49.95;17.98;;;;;;;;;;10199429;29;20040;-68
2022/01/19 00:14:24;;;;;;;44.22;17.23;;;;;;;;;;10177655;29;20084;-68
2022/01/19 00:19:26;;;;;;;48.70;19.77;;;;;;;;;;10160201;29;20045;-69
2022/01/19 00:24:28;;;;;;;51.03;17.48;;;;;;;;;;10187502;29;20052;-67
2022/01/19 00:29:32;;;;;;;48.78;18.95;;;;;;;;;;10197979;29;20048;-68
2022/01/19 00:34:35;;;;;;;46.17;19.05;;;;;;;;;;10158974;29;20100;-68
2022/01/19 00:39:37;;;;;;;50.05;20.73;;;;;;;;;;10166246;29;20052;-68
2022/01/19 00:44:41;;;;;;;50.60;19.88;;;;;;;;;;10196632;29;20321;-68
2022/01/19 00:49:43;;;;;;;54.47;20.80;;;;;;;;;;10196895;29;20052;-68
2022/01/19 00:54:46;;;;;;;49.33;20.48;;;;;;;;;;10196688;29;20426;-68
2022/01/19 00:59:50;;;;;;;48.50;18.70;;;;;;;;;;10196833;29;20052;-68
2022/01/19 01:04:53;;;;;;;38.77;18.80;;;;;;;;;;10175930;29;20063;-68
2022/01/19 01:09:55;;;;;;;39.92;18.88;;;;;;;;;;10196676;29;20081;-68
2022/01/19 01:20:19;;;;;;;46.95;17.77;;;;;;;;;;10209754;29;20047;-68
2022/01/19 01:25:21;;;;;;;43.75;17.95;;;;;;;;;;10195484;29;20336;-69
2022/01/19 01:30:25;;;;;;;42.17;18.00;;;;;;;;;;10195114;29;20044;-69
2022/01/19 01:35:27;;;;;;;41.70;16.60;;;;;;;;;;10195483;29;20299;-68
2022/01/19 01:40:33;;;;;;;38.58;16.15;;;;;;;;;;10195414;29;20087;-68
2022/01/19 01:45:41;;;;;;;37.05;15.48;;;;;;;;;;10194490;29;20086;-69
2022/01/19 01:56:05;;;;;;;35.90;14.93;;;;;;;;;;10173310;29;20064;-69
2022/01/19 02:01:10;;;;;;;38.35;15.98;;;;;;;;;;10155984;29;20104;-69
2022/01/19 02:06:31;;;;;;;35.38;15.35;;;;;;;;;;10175477;29;20244;-68
2022/01/19 02:21:37;;;;;;;39.75;15.70;;;;;;;;;;10193863;29;20363;-68
2022/01/19 02:22:15;;;;;;;35.80;15.20;;;;;;;;;;10169220;29;20048;-67
2022/01/19 02:43:23;;;;;;;33.42;14.60;;;;;;;;;;10207783;29;20044;-69
2022/01/19 02:53:47;;;;;;;32.60;14.82;;;;;;;;;;10205164;29;20040;-69
2022/01/19 02:58:55;;;;;;;39.28;14.75;;;;;;;;;;10192429;29;20048;-69
2022/01/19 03:09:19;;;;;;;32.58;14.02;;;;;;;;;;10207497;29;20044;-68
2022/01/19 03:14:21;;;;;;;35.42;14.57;;;;;;;;;;10192063;29;20068;-68
2022/01/19 03:19:26;;;;;;;33.08;14.15;;;;;;;;;;10192039;29;20072;-68
2022/01/19 03:24:37;;;;;;;32.40;15.20;;;;;;;;;;10191586;29;20374;-67
2022/01/19 03:29:40;;;;;;;35.03;15.05;;;;;;;;;;10176316;29;20045;-67
2022/01/19 03:34:42;;;;;;;32.28;14.02;;;;;;;;;;10176256;29;20098;-67
2022/01/19 03:39:46;;;;;;;32.38;15.25;;;;;;;;;;10191570;29;20057;-69
2022/01/19 03:44:48;;;;;;;29.20;13.95;;;;;;;;;;10173060;29;20119;-69
2022/01/19 03:49:50;;;;;;;29.27;13.30;;;;;;;;;;10151845;29;20355;-68
2022/01/19 03:54:55;;;;;;;30.70;14.27;;;;;;;;;;10178421;29;20083;-68
2022/01/19 03:59:58;;;;;;;31.57;13.73;;;;;;;;;;10160321;29;20068;-68
2022/01/19 04:05:05;;;;;;;34.50;15.00;;;;;;;;;;10152398;29;20068;-69
2022/01/19 04:10:09;;;;;;;35.38;14.00;;;;;;;;;;10180718;29;20044;-69
2022/01/19 04:15:13;;;;;;;27.40;13.90;;;;;;;;;;10196352;29;20072;-68
2022/01/19 04:20:15;;;;;;;30.88;13.63;;;;;;;;;;10198133;29;20272;-69
2022/01/19 04:25:19;;;;;;;29.20;14.07;;;;;;;;;;10196897;29;20056;-69
2022/01/19 04:30:26;;;;;;;30.92;14.07;;;;;;;;;;10196774;29;20064;-68
2022/01/19 04:35:34;;;;;;;33.05;13.82;;;;;;;;;;10197846;29;20080;-68
2022/01/19 04:46:26;;;;;;;36.58;14.55;;;;;;;;;;10209929;29;20055;-68
2022/01/19 05:02:27;;;;;;;31.98;14.55;;;;;;;;;;10181138;29;20044;-67
2022/01/19 05:07:35;;;;;;;28.60;13.00;;;;;;;;;;10208403;29;20056;-67
2022/01/19 05:17:58;;;;;;;30.42;14.15;;;;;;;;;;10188399;29;20072;-68
2022/01/19 05:23:01;;;;;;;25.67;13.52;;;;;;;;;;10156149;29;20284;-69
2022/01/19 05:28:05;;;;;;;30.90;13.30;;;;;;;;;;10184371;29;20075;-69
2022/01/19 05:33:07;;;;;;;30.55;14.18;;;;;;;;;;10194268;29;20083;-68
2022/01/19 05:38:10;;;;;;;33.92;15.38;;;;;;;;;;10194484;29;20378;-69
2022/01/19 05:43:13;;;;;;;25.42;13.73;;;;;;;;;;10194028;29;20107;-69
2022/01/19 05:48:16;;;;;;;24.10;13.32;;;;;;;;;;10193124;29;20040;-68
2022/01/19 05:53:18;;;;;;;32.03;15.82;;;;;;;;;;10194036;29;20068;-67
2022/01/19 05:58:22;;;;;;;35.60;16.30;;;;;;;;;;10188614;29;20075;-67
2022/01/19 06:03:24;;;;;;;37.47;16.77;;;;;;;;;;10167060;29;20060;-68
2022/01/19 06:08:41;;;;;;;37.17;16.20;;;;;;;;;;10157311;29;20087;-69
2022/01/19 06:13:45;;;;;;;32.67;16.17;;;;;;;;;;10189078;29;20251;-69
2022/01/19 06:18:47;;;;;;;34.28;15.07;;;;;;;;;;10157378;29;20162;-69
2022/01/19 06:23:49;;;;;;;32.33;16.45;;;;;;;;;;10187512;29;20067;-69
2022/01/19 06:28:53;;;;;;;31.70;17.08;;;;;;;;;;10187382;29;20123;-69
2022/01/19 06:33:56;;;;;;;32.95;15.68;;;;;;;;;;10189559;29;20060;-69
2022/01/19 06:38:58;;;;;;;30.92;15.82;;;;;;;;;;10191378;29;20048;-69
2022/01/19 06:44:02;;;;;;;36.67;15.88;;;;;;;;;;10185051;29;20071;-69
2022/01/19 06:49:05;;;;;;;53.63;17.90;;;;;;;;;;10185240;29;20075;-68
2022/01/19 06:54:07;;;;;;;48.08;19.55;;;;;;;;;;10191237;29;20079;-69
2022/01/19 06:59:11;;;;;;;73.47;21.02;;;;;;;;;;10190727;29;20337;-68
2022/01/19 07:04:15;;;;;;;63.50;22.38;;;;;;;;;;10191709;29;20048;-68
2022/01/19 07:09:18;;;;;;;86.43;26.13;;;;;;;;;;10191254;29;20059;-68
2022/01/19 07:14:22;;;;;;;34.03;16.60;;;;;;;;;;10189710;29;20052;-66
2022/01/19 07:19:24;;;;;;;49.80;18.40;;;;;;;;;;10186003;29;20049;-68
2022/01/19 07:24:26;;;;;;;52.90;18.90;;;;;;;;;;10168806;29;20108;-67
2022/01/19 07:29:30;;;;;;;59.40;23.33;;;;;;;;;;10189505;29;20123;-67
2022/01/19 07:34:33;;;;;;;58.67;21.40;;;;;;;;;;10188538;29;20064;-68
2022/01/19 07:39:35;;;;;;;69.32;23.65;;;;;;;;;;10191590;29;20403;-67
2022/01/19 07:44:39;;;;;;;50.00;23.30;;;;;;;;;;10180948;29;20052;-67
2022/01/19 07:49:41;;;;;;;45.70;20.88;;;;;;;;;;10195765;29;20048;-66
2022/01/19 07:54:43;;;;;;;39.67;17.42;;;;;;;;;;10189000;29;20068;-67
2022/01/19 07:59:47;;;;;;;51.80;20.15;;;;;;;;;;10195424;29;20044;-67
2022/01/19 08:04:49;;;;;;;44.50;18.90;;;;;;;;;;10198041;29;20058;-67
2022/01/19 08:09:52;;;;;;;40.50;17.02;;;;;;;;;;10197669;29;20272;-66
2022/01/19 08:14:58;;;;;;;42.35;16.63;;;;;;;;;;10197421;29;20368;-68
2022/01/19 08:20:00;;;;;;;33.80;17.48;;;;;;;;;;10209631;29;20060;-67
2022/01/19 08:25:03;;;;;;;43.10;19.27;;;;;;;;;;10196048;29;20078;-67
2022/01/19 08:30:10;;;;;;;35.85;17.98;;;;;;;;;;10195794;29;20111;-68
2022/01/19 08:35:12;;;;;;;28.42;15.70;;;;;;;;;;10200248;29;20079;-68
2022/01/19 08:40:15;;;;;;;34.65;16.60;;;;;;;;;;10197484;29;20052;-67
2022/01/19 08:45:19;;;;;;;36.08;16.85;;;;;;;;;;10195216;29;20067;-67
2022/01/19 08:50:23;;;;;;;35.08;16.80;;;;;;;;;;10194895;29;20047;-67
2022/01/19 08:55:25;;;;;;;29.40;14.98;;;;;;;;;;10176231;29;20048;-67
2022/01/19 09:00:32;;;;;;;27.50;14.25;;;;;;;;;;10188917;29;20079;-67
2022/01/19 09:05:34;;;;;;;36.72;16.23;;;;;;;;;;10192243;29;20063;-67
2022/01/19 09:10:39;;;;;;;31.77;15.57;;;;;;;;;;10194983;29;20071;-67
2022/01/19 09:15:43;;;;;;;32.60;15.57;;;;;;;;;;10195773;29;20044;-67
2022/01/19 09:20:45;;;;;;;33.70;16.60;;;;;;;;;;10194905;29;20076;-66
2022/01/19 09:25:48;;;;;;;32.88;16.85;;;;;;;;;;10195011;29;20347;-66
2022/01/19 09:30:52;;;;;;;36.58;18.88;;;;;;;;;;10194117;29;20052;-66
2022/01/19 09:36:06;;;;;;;40.05;21.10;;;;;;;;;;10194128;29;20082;-68
2022/01/19 09:41:09;;;;;;;44.27;25.03;;;;;;;;;;10194045;29;20056;-68
2022/01/19 09:46:13;;;;;;;45.65;23.15;;;;;;;;;;10194793;29;20179;-68
2022/01/19 09:51:16;;;;;;;38.90;22.20;;;;;;;;;;10193831;29;20144;-72
2022/01/19 09:56:20;;;;;;;39.55;20.90;;;;;;;;;;10184300;29;20068;-69
2022/01/19 10:01:25;;;;;;;39.73;21.53;;;;;;;;;;10192541;29;20055;-69
2022/01/19 10:06:27;;;;;;;33.25;16.38;;;;;;;;;;10206576;29;20235;-69
2022/01/19 10:16:58;;;;;;;27.30;14.48;;;;;;;;;;10192805;29;20392;-67
2022/01/19 10:17:06;;;;;;;25.05;15.45;;;;;;;;;;10193046;29;20052;-68
2022/01/19 10:22:12;;;;;;;27.98;15.52;;;;;;;;;;10192610;29;20243;-70
2022/01/19 10:27:23;;;;;;;32.35;17.25;;;;;;;;;;10206188;29;20048;-71
2022/01/19 10:32:27;;;;;;;41.92;20.33;;;;;;;;;;10191733;29;20064;-71
2022/01/19 10:37:29;;;;;;;41.05;19.00;;;;;;;;;;10185109;29;20080;-67
2022/01/19 10:42:34;;;;;;;39.53;19.52;;;;;;;;;;10191722;29;20048;-70
2022/01/19 10:47:44;;;;;;;34.45;19.27;;;;;;;;;;10190889;29;20059;-67
2022/01/19 10:52:47;;;;;;;36.22;18.80;;;;;;;;;;10180139;29;20092;-68
2022/01/19 10:57:51;;;;;;;39.13;19.55;;;;;;;;;;10154642;29;20063;-72
2022/01/19 11:02:56;;;;;;;39.22;21.17;;;;;;;;;;10185641;29;20044;-71
2022/01/19 11:07:58;;;;;;;39.50;21.40;;;;;;;;;;10185137;29;20048;-69
2022/01/19 11:13:01;;;;;;;40.30;22.45;;;;;;;;;;10187924;29;20052;-67
2022/01/19 11:18:04;;;;;;;46.65;23.27;;;;;;;;;;10190644;29;20064;-71
2022/01/19 11:23:17;;;;;;;38.95;21.27;;;;;;;;;;10186815;29;20076;-66
2022/01/19 11:28:34;;;;;;;32.67;19.30;;;;;;;;;;10192944;29;20064;-68
2022/01/19 11:33:43;;;;;;;36.30;21.13;;;;;;;;;;10151675;29;1163682;-68
2022/01/19 11:38:48;;;;;;;36.25;18.50;;;;;;;;;;10170890;29;20056;-68
2022/01/19 11:43:52;;;;;;;37.30;20.23;;;;;;;;;;10195919;29;20064;-69
2022/01/19 11:48:56;;;;;;;37.63;18.97;;;;;;;;;;10197310;29;20131;-69
2022/01/19 11:54:00;;;;;;;35.83;19.30;;;;;;;;;;10193807;29;20040;-69
2022/01/19 11:59:08;;;;;;;35.17;19.80;;;;;;;;;;10197108;29;20159;-68
2022/01/19 12:04:17;;;;;;;32.80;18.80;;;;;;;;;;10170623;29;20307;-69
2022/01/19 12:09:19;;;;;;;36.47;19.85;;;;;;;;;;10174534;29;20055;-68
2022/01/19 12:14:34;;;;;;;36.55;18.80;;;;;;;;;;10197272;29;20056;-69
2022/01/19 12:19:41;;;;;;;31.70;19.55;;;;;;;;;;10194164;29;20123;-68
2022/01/19 12:24:45;;;;;;;33.47;19.40;;;;;;;;;;10170645;29;20363;-67
2022/01/19 12:29:52;;;;;;;36.03;20.67;;;;;;;;;;10179720;29;20051;-68
2022/01/19 12:35:10;;;;;;;35.78;19.50;;;;;;;;;;10192447;29;20076;-69
2022/01/19 12:40:40;;;;;;;34.72;19.05;;;;;;;;;;10191239;29;20087;-69
2022/01/19 12:45:49;;;;;;;41.00;20.25;;;;;;;;;;10193107;29;20051;-68
2022/01/19 12:50:54;;;;;;;32.90;19.65;;;;;;;;;;10189595;29;20040;-67
2022/01/19 12:55:59;;;;;;;37.95;20.05;;;;;;;;;;10170782;29;20338;-69
2022/01/19 13:01:04;;;;;;;47.55;24.48;;;;;;;;;;10168656;29;20072;-69
2022/01/19 13:06:13;;;;;;;41.67;21.92;;;;;;;;;;10182192;29;20081;-68
2022/01/19 13:11:21;;;;;;;39.33;20.35;;;;;;;;;;10169662;29;20079;-68
2022/01/19 13:16:33;;;;;;;41.53;21.73;;;;;;;;;;10172796;29;20059;-69
2022/01/19 13:21:37;;;;;;;48.63;23.75;;;;;;;;;;10186644;29;20049;-67
2022/01/19 13:26:43;;;;;;;42.83;24.50;;;;;;;;;;10167848;29;20255;-68
2022/01/19 13:31:55;;;;;;;;;;;;;;;;;;10191388;29;20068;-68
2022/01/19 13:37:01;;;;;;;50.53;27.20;;;;;;;;;;10188220;29;19919;-68
2022/01/19 13:42:04;;;;;;;54.40;27.60;;;;;;;;;;10190624;29;20185;-68
2022/01/19 13:47:11;;;;;;;66.93;34.97;;;;;;;;;;10189329;29;20044;-71
2022/01/19 13:52:15;;;;;;;60.08;32.40;;;;;;;;;;10192251;29;20063;-69
2022/01/19 13:57:27;;;;;;;61.45;31.42;;;;;;;;;;10154314;29;20097;-68
2022/01/19 14:02:29;;;;;;;57.42;31.50;;;;;;;;;;10178118;29;20434;-68
2022/01/19 14:07:33;;;;;;;56.25;30.30;;;;;;;;;;10188650;29;20059;-69
2022/01/19 14:12:35;;;;;;;63.88;31.48;;;;;;;;;;10191544;29;20410;-69
2022/01/19 14:17:40;;;;;;;63.70;32.22;;;;;;;;;;10168144;29;20078;-68
2022/01/19 14:22:43;;;;;;;64.17;31.37;;;;;;;;;;10155105;29;20240;-69
2022/01/19 14:27:47;;;;;;;67.80;31.60;;;;;;;;;;10183369;29;20119;-68
2022/01/19 14:32:51;;;;;;;74.53;34.97;;;;;;;;;;10174764;29;20079;-68
2022/01/19 14:38:13;;;;;;;92.07;37.55;;;;;;;;;;10190853;29;20352;-69
2022/01/19 14:43:17;;;;;;;97.15;38.03;;;;;;;;;;10203946;29;20096;-69
2022/01/19 14:48:20;;;;;;;77.18;33.65;;;;;;;;;;10190811;29;20063;-68
2022/01/19 14:53:24;;;;;;;66.28;31.08;;;;;;;;;;10183582;29;20352;-68
2022/01/19 14:58:28;;;;;;;75.85;32.45;;;;;;;;;;10151967;29;20044;-67
2022/01/19 15:03:31;;;;;;;76.40;34.35;;;;;;;;;;10187024;29;20059;-68
2022/01/19 15:08:35;;;;;;;70.38;31.73;;;;;;;;;;10187655;29;20056;-69
2022/01/19 15:13:37;;;;;;;76.97;35.42;;;;;;;;;;10191306;29;20392;-68
2022/01/19 15:18:40;;;;;;;79.10;36.45;;;;;;;;;;10191937;29;20080;-69
2022/01/19 15:23:44;;;;;;;83.15;37.25;;;;;;;;;;10191014;29;20076;-68
2022/01/19 15:28:47;;;;;;;93.43;41.30;;;;;;;;;;10201795;29;20110;-69
2022/01/19 15:33:49;;;;;;;75.68;35.72;;;;;;;;;;10193522;29;20075;-68
2022/01/19 15:38:53;;;;;;;82.32;33.90;;;;;;;;;;10191651;29;20096;-69
2022/01/19 15:43:56;;;;;;;80.68;35.03;;;;;;;;;;10190436;29;20247;-69
2022/01/19 15:48:58;;;;;;;72.68;33.60;;;;;;;;;;10187531;29;20107;-69
2022/01/19 15:54:02;;;;;;;76.28;33.70;;;;;;;;;;10189677;29;20048;-68
2022/01/19 15:59:04;;;;;;;79.53;35.20;;;;;;;;;;10188314;29;20043;-69
2022/01/19 16:04:07;;;;;;;100.78;39.67;;;;;;;;;;10202992;29;20057;-68
2022/01/19 16:09:12;;;;;;;86.57;37.72;;;;;;;;;;10195869;29;20358;-69
2022/01/19 16:14:14;;;;;;;100.07;41.27;;;;;;;;;;10197292;29;20044;-67
2022/01/19 16:19:17;;;;;;;88.72;39.15;;;;;;;;;;10200102;29;20048;-69
2022/01/19 16:29:41;;;;;;;96.82;38.72;;;;;;;;;;10198332;29;20084;-68
2022/01/19 16:34:44;;;;;;;85.20;35.92;;;;;;;;;;10196403;29;20056;-70
2022/01/19 16:39:47;;;;;;;82.75;34.10;;;;;;;;;;10196733;29;20268;-71
2022/01/19 16:44:51;;;;;;;83.78;33.53;;;;;;;;;;10196763;29;20339;-69
2022/01/19 16:49:53;;;;;;;92.57;34.47;;;;;;;;;;10196181;29;20048;-70
2022/01/19 16:54:57;;;;;;;82.60;33.35;;;;;;;;;;10195733;29;20358;-68
2022/01/19 16:59:59;;;;;;;75.13;33.42;;;;;;;;;;10185104;29;20260;-70
2022/01/19 17:05:02;;;;;;;86.65;34.70;;;;;;;;;;10195888;29;20055;-70
2022/01/19 17:10:10;;;;;;;80.55;33.50;;;;;;;;;;10195170;29;20056;-69
2022/01/19 17:15:19;;;;;;;73.82;32.15;;;;;;;;;;10193789;29;20059;-70
2022/01/19 17:20:25;;;;;;;87.85;35.17;;;;;;;;;;10207450;29;20036;-70
2022/01/19 17:25:29;;;;;;;82.60;33.88;;;;;;;;;;10207822;29;20114;-70
2022/01/19 17:30:32;;;;;;;83.43;32.85;;;;;;;;;;10193709;29;20052;-69
2022/01/19 17:35:35;;;;;;;77.22;31.33;;;;;;;;;;10193567;29;20076;-68
2022/01/19 17:40:44;;;;;;;86.75;32.53;;;;;;;;;;10195044;29;20051;-67
2022/01/19 17:45:53;;;;;;;80.00;33.88;;;;;;;;;;10207802;29;20067;-70
2022/01/19 17:51:02;;;;;;;81.25;31.45;;;;;;;;;;10193908;29;20056;-69
2022/01/19 17:56:06;;;;;;;82.55;33.22;;;;;;;;;;10207607;29;20059;-69
2022/01/19 18:01:08;;;;;;;73.50;29.52;;;;;;;;;;10193625;29;20063;-68
2022/01/19 18:06:10;;;;;;;75.15;30.98;;;;;;;;;;10194020;29;20296;-70
2022/01/19 18:11:14;;;;;;;71.30;30.55;;;;;;;;;;10193748;29;20339;-69
2022/01/19 18:16:16;;;;;;;77.13;33.00;;;;;;;;;;10194091;29;20107;-70
2022/01/19 18:21:18;;;;;;;71.72;30.27;;;;;;;;;;10194040;29;20264;-67
2022/01/19 18:26:26;;;;;;;71.15;29.65;;;;;;;;;;10192411;29;20331;-70
2022/01/19 18:31:28;;;;;;;72.30;30.13;;;;;;;;;;10201087;29;20063;-68
2022/01/19 18:36:31;;;;;;;78.22;30.38;;;;;;;;;;10193709;29;20059;-69
2022/01/19 18:41:35;;;;;;;78.28;31.50;;;;;;;;;;10193089;29;20074;-68
2022/01/19 18:46:38;;;;;;;75.22;31.23;;;;;;;;;;10197960;29;20272;-69
2022/01/19 18:51:40;;;;;;;72.18;30.27;;;;;;;;;;10193581;29;20096;-69
2022/01/19 18:56:44;;;;;;;72.88;31.00;;;;;;;;;;10200207;29;20046;-68
2022/01/19 19:01:46;;;;;;;70.68;31.13;;;;;;;;;;10233340;29;20259;-69
2022/01/19 19:06:48;;;;;;;71.82;31.17;;;;;;;;;;10232795;29;20074;-70
2022/01/19 19:12:01;;;;;;;70.03;29.15;;;;;;;;;;10195773;29;20354;-70
2022/01/19 19:17:04;;;;;;;68.97;29.85;;;;;;;;;;10207050;29;20048;-69
2022/01/19 19:22:07;;;;;;;65.40;28.73;;;;;;;;;;10191226;29;20043;-70
2022/01/19 19:27:11;;;;;;;64.95;27.98;;;;;;;;;;10193844;29;20056;-69
2022/01/19 19:32:14;;;;;;;60.08;25.98;;;;;;;;;;10192454;29;20110;-70
2022/01/19 19:37:17;;;;;;;61.25;26.70;;;;;;;;;;10208112;29;20075;-70
2022/01/19 19:42:21;;;;;;;50.22;24.08;;;;;;;;;;10191588;29;20040;-70
2022/01/19 19:47:23;;;;;;;51.95;23.75;;;;;;;;;;10199888;29;20064;-70
2022/01/19 19:52:25;;;;;;;45.15;22.90;;;;;;;;;;10199710;29;20044;-68
2022/01/19 19:57:29;;;;;;;48.97;24.95;;;;;;;;;;10199889;29;20051;-68
2022/01/19 20:02:31;;;;;;;52.10;24.23;;;;;;;;;;10198567;29;20092;-68
2022/01/19 20:07:34;;;;;;;49.03;25.42;;;;;;;;;;10198422;29;20055;-70
2022/01/19 20:12:38;;;;;;;44.03;24.13;;;;;;;;;;10159225;29;20045;-68
2022/01/19 20:17:40;;;;;;;49.90;25.00;;;;;;;;;;10181118;29;20048;-69
2022/01/19 20:22:42;;;;;;;45.92;24.15;;;;;;;;;;10198246;29;20055;-68
2022/01/19 20:27:47;;;;;;;48.83;23.95;;;;;;;;;;10198176;29;20303;-69
2022/01/19 20:32:50;;;;;;;43.58;23.88;;;;;;;;;;10198746;29;20067;-69
2022/01/19 20:37:53;;;;;;;43.53;22.77;;;;;;;;;;10196945;29;20355;-69
2022/01/19 20:42:56;;;;;;;41.80;21.92;;;;;;;;;;10195419;29;20075;-69
2022/01/19 20:47:59;;;;;;;37.08;21.13;;;;;;;;;;10196793;29;20119;-70
2022/01/19 20:53:02;;;;;;;39.25;22.38;;;;;;;;;;10196927;29;20083;-69
2022/01/19 20:58:05;;;;;;;38.58;21.10;;;;;;;;;;10185137;29;20157;-69
2022/01/19 21:03:08;;;;;;;34.40;20.58;;;;;;;;;;10196385;29;20052;-68
2022/01/19 21:08:11;;;;;;;33.05;20.52;;;;;;;;;;10196707;29;20056;-68
2022/01/19 21:13:14;;;;;;;41.13;20.98;;;;;;;;;;10190857;29;20059;-68
2022/01/19 21:18:17;;;;;;;34.58;20.10;;;;;;;;;;10195648;29;20322;-67
2022/01/19 21:23:20;;;;;;;33.05;19.40;;;;;;;;;;10196081;29;20071;-68
2022/01/19 21:28:25;;;;;;;37.35;19.55;;;;;;;;;;10190287;29;20395;-69
2022/01/19 21:33:28;;;;;;;38.05;18.88;;;;;;;;;;10196192;29;20060;-69
2022/01/19 21:38:30;;;;;;;36.20;20.05;;;;;;;;;;10182734;29;20060;-69
2022/01/19 21:43:34;;;;;;;33.50;20.00;;;;;;;;;;10196126;29;20044;-69
2022/01/19 21:48:36;;;;;;;36.65;20.27;;;;;;;;;;10194782;29;20300;-68
2022/01/19 21:53:39;;;;;;;32.13;19.48;;;;;;;;;;10194220;29;20099;-69
2022/01/19 21:58:43;;;;;;;33.85;20.33;;;;;;;;;;10196327;29;20044;-69
2022/01/19 22:03:45;;;;;;;35.47;19.02;;;;;;;;;;10194677;29;20043;-69
2022/01/19 22:08:47;;;;;;;34.63;19.88;;;;;;;;;;10191857;29;20048;-68
2022/01/19 22:13:51;;;;;;;31.23;19.45;;;;;;;;;;10193731;29;20052;-69
2022/01/19 22:18:53;;;;;;;30.33;18.02;;;;;;;;;;10195057;29;20052;-69
2022/01/19 22:23:56;;;;;;;36.28;19.40;;;;;;;;;;10192490;29;20074;-70
2022/01/19 22:28:59;;;;;;;31.70;18.50;;;;;;;;;;10166182;29;20049;-68
2022/01/19 22:34:05;;;;;;;29.05;17.65;;;;;;;;;;10184748;29;20056;-69
2022/01/19 22:39:07;;;;;;;27.77;17.20;;;;;;;;;;10194089;29;20059;-69
2022/01/19 22:44:11;;;;;;;33.42;18.30;;;;;;;;;;10193018;29;20056;-68
2022/01/19 22:49:13;;;;;;;31.27;19.10;;;;;;;;;;10192107;29;20055;-68
2022/01/19 22:54:15;;;;;;;36.05;18.58;;;;;;;;;;10192447;29;20052;-68
2022/01/19 22:59:19;;;;;;;32.55;18.67;;;;;;;;;;10191749;29;20084;-69
2022/01/19 23:04:22;;;;;;;33.25;17.83;;;;;;;;;;10184880;29;20103;-68
2022/01/19 23:09:24;;;;;;;32.17;18.65;;;;;;;;;;10192733;29;20296;-69
2022/01/19 23:14:28;;;;;;;32.75;20.05;;;;;;;;;;10191404;29;20262;-69
2022/01/19 23:19:30;;;;;;;35.67;21.13;;;;;;;;;;10196430;29;20048;-68
2022/01/19 23:24:33;;;;;;;33.20;19.50;;;;;;;;;;10202890;29;20269;-69
2022/01/19 23:29:37;;;;;;;33.10;19.02;;;;;;;;;;10194866;29;20060;-69
2022/01/19 23:34:42;;;;;;;35.47;18.63;;;;;;;;;;10199204;29;20315;-68
2022/01/19 23:40:15;;;;;;;37.78;20.88;;;;;;;;;;10199961;29;20059;-69
2022/01/19 23:50:36;;;;;;;37.20;19.08;;;;;;;;;;10173442;29;20048;-67
2022/01/19 23:55:39;;;;;;;34.75;20.33;;;;;;;;;;10196833;29;20355;-68
